»·PEaware :: QXE2674 KLAS-KABQ

QXE2674 :: KLAS-KABQ

FLIGHT INFORMATION

Flight Status: Arrived
Operator:
Horizon Air
More flights by this operator :: More flights under this callsign
Pilot: Walter H. (552)
Aircraft: DEHAVILLAND DASH 8 400
(DH8D)
More flights by this aircraft type
Origin: KLAS McCarran Intl
United States
Destination: KABQ Albuquerque Intl Sunport
United States
More flights between these airports :: More routes between these airports
Route: COWBY6 GUP GUP LOWBO
File this flight plan on PilotEdge
Remarks:
Altitude:
(Current/Filed)
25,000ft
Speed:
(Current/Filed)
250kts
Departed: 17-Jan-16 06:22 PM
Arrived: 17-Jan-16 08:02 PM
Distance/Time
Traveled:
421nm/1:40
Distance/Time
To Go:
Arrived

Flight Plot

Page will automatically refresh every two minutes.


Map Options




Map Legend


Flown Route
Filed Route
Departure Airport
Arrival Airport
Navaid (VOR, NDB)
Fix

Horizontal Profiles

Position Reports

Time Latitude Longitude Heading Altitude Ground
Speed
17-Jan-16 17:44 36.085410 -115.151839 258 2122ft 0kts
17-Jan-16 17:45 36.085410 -115.151839 258 2122ft 0kts
17-Jan-16 17:46 36.085410 -115.151839 258 2122ft 0kts
17-Jan-16 17:47 36.085410 -115.151839 258 2122ft 0kts
17-Jan-16 17:48 36.085410 -115.151839 258 2122ft 0kts
17-Jan-16 17:49 36.085410 -115.151839 258 2122ft 0kts
17-Jan-16 17:50 36.085410 -115.151839 258 2122ft 0kts
17-Jan-16 17:51 36.085410 -115.151839 258 2122ft 0kts
17-Jan-16 17:52 36.085410 -115.151839 258 2122ft 0kts
17-Jan-16 17:53 36.085410 -115.151839 258 2122ft 0kts
17-Jan-16 17:54 36.085410 -115.151839 258 2122ft 0kts
17-Jan-16 17:55 36.085410 -115.151839 258 2122ft 0kts
17-Jan-16 17:56 36.085410 -115.151839 258 2122ft 0kts
17-Jan-16 17:57 36.085410 -115.151839 258 2122ft 0kts
17-Jan-16 17:58 36.085410 -115.151839 258 2122ft 0kts
17-Jan-16 17:59 36.085410 -115.151839 258 2122ft 0kts
17-Jan-16 18:00 36.085410 -115.151839 258 2122ft 0kts
17-Jan-16 18:01 36.085410 -115.151839 258 2122ft 0kts
17-Jan-16 18:02 36.085410 -115.151839 258 2122ft 0kts
17-Jan-16 18:03 36.085410 -115.151839 258 2122ft 0kts
17-Jan-16 18:04 36.085410 -115.151839 258 2122ft 0kts
17-Jan-16 18:05 36.085412 -115.151827 258 2122ft 0kts
17-Jan-16 18:06 36.086760 -115.151675 9 2122ft 14kts
17-Jan-16 18:07 36.087521 -115.154319 252 2122ft 4kts
17-Jan-16 18:08 36.085156 -115.159003 203 2122ft 28kts
17-Jan-16 18:09 36.081644 -115.160899 204 2122ft 8kts
17-Jan-16 18:10 36.074971 -115.164774 240 2122ft 12kts
17-Jan-16 18:11 36.074923 -115.165949 274 2122ft 0kts
17-Jan-16 18:12 36.074923 -115.165949 274 2122ft 0kts
17-Jan-16 18:13 36.074923 -115.165949 274 2122ft 0kts
17-Jan-16 18:14 36.074923 -115.165949 274 2122ft 0kts
17-Jan-16 18:15 36.074923 -115.165949 274 2122ft 0kts
17-Jan-16 18:16 36.074923 -115.165953 274 2122ft 1kts
17-Jan-16 18:17 36.089261 -115.158880 24 2276ft 149kts
17-Jan-16 18:18 36.117078 -115.115743 73 4666ft 205kts
17-Jan-16 18:19 36.131603 -115.033825 81 6153ft 265kts
17-Jan-16 18:20 36.143050 -114.944958 81 8194ft 264kts
17-Jan-16 18:21 36.155026 -114.853441 81 10067ft 272kts
17-Jan-16 18:22 36.169623 -114.760029 75 11934ft 279kts
17-Jan-16 18:23 36.175175 -114.664949 117 13696ft 286kts
17-Jan-16 18:24 36.119014 -114.597426 145 15459ft 282kts
17-Jan-16 18:25 36.055368 -114.539746 146 17114ft 284kts
17-Jan-16 18:26 36.006372 -114.464818 103 18596ft 291kts
17-Jan-16 18:27 35.991515 -114.366420 97 20062ft 289kts
17-Jan-16 18:28 35.977561 -114.268732 97 21414ft 287kts
17-Jan-16 18:29 35.963261 -114.171665 96 22662ft 285kts
17-Jan-16 18:30 35.949044 -114.075067 96 23812ft 284kts
17-Jan-16 18:31 35.934785 -113.979038 95 24851ft 284kts
17-Jan-16 18:32 35.920027 -113.879903 96 25249ft 306kts
17-Jan-16 18:33 35.903296 -113.772387 97 25268ft 329kts
17-Jan-16 18:34 35.885300 -113.658868 97 25271ft 343kts
17-Jan-16 18:35 35.866598 -113.542112 97 25284ft 350kts
17-Jan-16 18:36 35.850788 -113.443062 97 25293ft 354kts
17-Jan-16 18:37 35.831711 -113.323678 97 25298ft 358kts
17-Jan-16 18:38 35.812185 -113.203001 97 25309ft 359kts
17-Jan-16 18:39 35.792527 -113.081867 96 25316ft 361kts
17-Jan-16 18:40 35.772627 -112.960347 96 25324ft 362kts
17-Jan-16 18:41 35.752640 -112.838634 96 25332ft 363kts
17-Jan-16 18:42 35.732494 -112.716668 96 25338ft 363kts
17-Jan-16 18:43 35.712065 -112.594571 96 25342ft 364kts
17-Jan-16 18:44 35.691584 -112.472321 96 25345ft 364kts
17-Jan-16 18:45 35.670907 -112.350047 96 25347ft 365kts
17-Jan-16 18:46 35.650211 -112.228019 96 25349ft 365kts
17-Jan-16 18:47 35.629385 -112.106323 96 25352ft 366kts
17-Jan-16 18:48 35.608286 -111.983875 96 25352ft 366kts
17-Jan-16 18:49 35.590413 -111.860974 86 25353ft 363kts
17-Jan-16 18:50 35.588678 -111.736408 85 25350ft 366kts
17-Jan-16 18:51 35.584695 -111.610817 85 25335ft 369kts
17-Jan-16 18:52 35.581174 -111.484561 85 25326ft 370kts
17-Jan-16 18:53 35.577329 -111.358048 85 25327ft 370kts
17-Jan-16 18:54 35.573412 -111.231688 85 25324ft 370kts
17-Jan-16 18:55 35.569350 -111.105256 85 25320ft 370kts
17-Jan-16 18:56 35.565169 -110.979294 85 25316ft 370kts
17-Jan-16 18:57 35.560861 -110.853003 85 25312ft 369kts
17-Jan-16 18:58 35.556419 -110.726801 85 25310ft 369kts
17-Jan-16 18:59 35.551845 -110.600572 85 25304ft 369kts
17-Jan-16 19:00 35.547194 -110.474460 84 25300ft 369kts
17-Jan-16 19:01 35.542324 -110.347944 84 25301ft 369kts
17-Jan-16 19:02 35.537406 -110.222014 85 25302ft 369kts
17-Jan-16 19:03 35.532294 -110.096010 85 25301ft 369kts
17-Jan-16 19:04 35.527034 -109.970368 84 25302ft 369kts
17-Jan-16 19:05 35.521625 -109.844295 84 25306ft 369kts
17-Jan-16 19:06 35.516268 -109.718311 84 25306ft 370kts
17-Jan-16 19:07 35.510544 -109.591828 84 25234ft 373kts
17-Jan-16 19:08 35.504746 -109.463626 85 24068ft 375kts
17-Jan-16 19:09 35.498898 -109.336829 85 22120ft 368kts
17-Jan-16 19:10 35.492926 -109.212549 85 20260ft 361kts
17-Jan-16 19:11 35.486847 -109.092837 85 19344ft 331kts
17-Jan-16 19:12 35.481314 -108.988189 82 19310ft 282kts
17-Jan-16 19:13 35.476804 -108.897922 80 19361ft 263kts
17-Jan-16 19:14 35.477225 -108.798798 76 19327ft 314kts
17-Jan-16 19:15 35.480634 -108.685881 79 19323ft 344kts
17-Jan-16 19:16 35.482962 -108.565740 79 19322ft 357kts
17-Jan-16 19:17 35.485493 -108.442445 79 19321ft 363kts
17-Jan-16 19:18 35.485686 -108.317277 85 19322ft 372kts
17-Jan-16 19:19 35.476197 -108.190146 86 19323ft 374kts
17-Jan-16 19:20 35.467910 -108.062741 86 19324ft 374kts
17-Jan-16 19:21 35.459441 -107.934781 86 18496ft 374kts
17-Jan-16 19:22 35.451103 -107.809097 86 16999ft 366kts
17-Jan-16 19:23 35.443617 -107.685010 87 15504ft 365kts
17-Jan-16 19:24 35.435707 -107.563212 87 15040ft 349kts
17-Jan-16 19:25 35.428094 -107.446061 87 15022ft 339kts
17-Jan-16 19:26 35.412392 -107.338794 112 15018ft 346kts
17-Jan-16 19:27 35.361089 -107.241959 119 15017ft 359kts
17-Jan-16 19:28 35.307246 -107.137717 117 15012ft 363kts
17-Jan-16 19:29 35.253834 -107.057637 136 15027ft 367kts
17-Jan-16 19:30 35.178006 -106.974718 135 15005ft 366kts
17-Jan-16 19:31 35.104935 -106.888606 131 15013ft 364kts
17-Jan-16 19:32 35.034707 -106.801294 129 14135ft 370kts
17-Jan-16 19:33 35.029761 -106.692019 47 12727ft 322kts
17-Jan-16 19:34 35.101999 -106.679695 318 11315ft 274kts
17-Jan-16 19:35 35.107826 -106.765890 258 9920ft 273kts
17-Jan-16 19:36 35.093240 -106.856496 281 8516ft 269kts
17-Jan-16 19:37 35.114478 -106.938418 287 8027ft 233kts
17-Jan-16 19:38 35.077440 -106.980647 158 8031ft 218kts
17-Jan-16 19:39 35.051554 -106.919829 94 8006ft 198kts
17-Jan-16 19:40 35.047317 -106.860375 89 8027ft 159kts
17-Jan-16 19:41 35.046170 -106.813037 87 8026ft 138kts
17-Jan-16 19:42 35.045624 -106.765844 87 7686ft 134kts
17-Jan-16 19:43 35.045158 -106.719989 87 6984ft 135kts
17-Jan-16 19:44 35.044768 -106.673742 87 6254ft 132kts
17-Jan-16 19:45 35.044371 -106.629013 86 5558ft 128kts
17-Jan-16 19:46 35.043579 -106.572381 82 6359ft 202kts
17-Jan-16 19:47 35.090368 -106.558319 328 8359ft 255kts
17-Jan-16 19:48 35.152468 -106.607376 317 8574ft 269kts
17-Jan-16 19:49 35.171175 -106.691960 279 8409ft 254kts
17-Jan-16 19:50 35.180204 -106.776173 279 8200ft 247kts
17-Jan-16 19:51 35.161973 -106.850203 204 7869ft 256kts
17-Jan-16 19:52 35.094827 -106.859315 153 8124ft 238kts
17-Jan-16 19:53 35.055099 -106.799276 109 8164ft 232kts
17-Jan-16 19:54 35.045548 -106.728492 91 7122ft 180kts
17-Jan-16 19:55 35.044359 -106.677738 86 6316ft 130kts
17-Jan-16 19:56 35.044394 -106.633576 85 5608ft 126kts
17-Jan-16 19:57 35.044290 -106.602025 90 5362ft 23kts
17-Jan-16 19:58 35.045801 -106.607050 270 5362ft 23kts
17-Jan-16 19:59 35.045750 -106.611190 271 5362ft 6kts
17-Jan-16 20:00 35.046675 -106.614408 358 5362ft 7kts
17-Jan-16 20:01 35.046856 -106.614414 358 5362ft 0kts
17-Jan-16 20:02 35.046856 -106.614414 358 5362ft 0kts
17-Jan-16 20:03 35.046856 -106.614414 358 5362ft 0kts

Navigation Log

Ident Type
Flight plan parsing failed, navigation log unavailable